createdAt,value
2023-12-10T00:00:21.078Z,22.40
2023-12-10T00:01:23.834Z,22.00
2023-12-10T00:02:26.693Z,18.45
2023-12-10T00:03:29.577Z,20.80
2023-12-10T00:04:33.222Z,21.90
2023-12-10T00:05:36.014Z,21.80
2023-12-10T00:06:38.874Z,22.00
2023-12-10T00:07:41.616Z,22.55
2023-12-10T00:08:44.100Z,20.60
2023-12-10T00:09:46.707Z,22.50
2023-12-10T00:10:49.411Z,20.73
2023-12-10T00:11:51.992Z,19.30
2023-12-10T00:12:54.687Z,20.20
2023-12-10T00:13:57.146Z,21.10
2023-12-10T00:14:59.689Z,18.30
2023-12-10T00:16:02.364Z,18.40
2023-12-10T00:17:04.880Z,17.90
2023-12-10T00:18:07.460Z,19.60
2023-12-10T00:19:10.314Z,18.90
2023-12-10T00:20:14.046Z,22.10
2023-12-10T00:21:16.692Z,27.00
2023-12-10T00:22:19.315Z,25.80
2023-12-10T00:23:22.795Z,25.00
2023-12-10T00:24:25.485Z,26.50
2023-12-10T00:25:28.128Z,27.30
2023-12-10T00:26:30.667Z,18.80
2023-12-10T00:27:33.332Z,25.50
2023-12-10T00:28:35.851Z,26.80
2023-12-10T00:29:38.289Z,25.30
2023-12-10T00:30:41.088Z,25.00
2023-12-10T00:31:44.345Z,26.20
2023-12-10T00:32:47.065Z,25.36
2023-12-10T00:33:49.826Z,25.40
2023-12-10T00:34:52.554Z,22.50
2023-12-10T00:35:55.327Z,24.70
2023-12-10T00:36:57.995Z,25.60
2023-12-10T00:38:00.560Z,25.00
2023-12-10T00:39:04.055Z,24.30
2023-12-10T00:40:09.305Z,23.30
2023-12-10T00:41:12.468Z,20.90
2023-12-10T00:42:15.035Z,22.73
2023-12-10T00:43:17.599Z,22.20
2023-12-10T00:44:20.127Z,23.90
2023-12-10T00:45:22.656Z,25.00
2023-12-10T00:46:25.214Z,25.40
2023-12-10T00:47:27.705Z,25.20
2023-12-10T00:48:30.376Z,20.70
2023-12-10T00:49:33.207Z,20.36
2023-12-10T00:50:36.030Z,18.55
2023-12-10T00:51:38.661Z,21.60
2023-12-10T00:52:41.220Z,19.80
2023-12-10T00:53:43.738Z,19.70
2023-12-10T00:54:46.262Z,17.50
2023-12-10T00:55:48.808Z,18.90
2023-12-10T00:56:51.477Z,19.20
2023-12-10T00:57:54.059Z,17.60
2023-12-10T00:58:56.624Z,17.60
2023-12-10T00:59:59.181Z,19.70
2023-12-10T01:01:01.832Z,23.20
2023-12-10T01:02:04.928Z,21.80
2023-12-10T01:03:07.616Z,22.20
2023-12-10T01:04:10.312Z,22.50
2023-12-10T01:05:12.949Z,19.50
2023-12-10T01:06:16.512Z,23.30
2023-12-10T01:07:19.092Z,22.00
2023-12-10T01:08:21.619Z,22.30
2023-12-10T01:09:24.182Z,21.40
2023-12-10T01:10:28.693Z,22.50
2023-12-10T01:11:31.507Z,21.80
2023-12-10T01:12:34.415Z,7.20
2023-12-10T01:13:36.867Z,24.10
2023-12-10T01:14:39.631Z,23.80
2023-12-10T01:15:42.322Z,23.36
2023-12-10T01:16:44.970Z,23.50
2023-12-10T01:17:47.559Z,20.90
2023-12-10T01:18:50.311Z,20.80
2023-12-10T01:19:52.971Z,20.70
2023-12-10T01:20:55.636Z,21.90
2023-12-10T01:21:59.792Z,23.20
2023-12-10T01:23:02.930Z,23.60
2023-12-10T01:24:05.797Z,19.50
2023-12-10T01:25:08.387Z,23.70
2023-12-10T01:26:12.175Z,23.60
2023-12-10T01:27:14.698Z,8.80
2023-12-10T01:28:17.407Z,27.20
2023-12-10T01:29:19.973Z,28.00
2023-12-10T01:30:23.188Z,27.20
2023-12-10T01:31:25.925Z,20.40
2023-12-10T01:32:28.691Z,26.80
2023-12-10T01:33:31.628Z,23.36
2023-12-10T01:34:34.522Z,26.82
2023-12-10T01:35:37.599Z,25.64
2023-12-10T01:36:40.397Z,24.70
2023-12-10T01:37:42.964Z,22.10
2023-12-10T01:38:45.467Z,23.30
2023-12-10T01:39:48.023Z,23.10
2023-12-10T01:40:50.588Z,19.80
2023-12-10T01:41:53.135Z,22.60
2023-12-10T01:42:56.442Z,22.70
2023-12-10T01:43:58.987Z,22.90
2023-12-10T01:45:02.469Z,24.00
2023-12-10T01:46:05.706Z,21.40
2023-12-10T01:47:09.400Z,20.10
2023-12-10T01:48:12.173Z,18.30
2023-12-10T01:49:16.765Z,24.00
2023-12-10T01:50:20.418Z,23.60
2023-12-10T01:51:23.932Z,22.10
2023-12-10T01:52:26.761Z,21.20
2023-12-10T01:53:29.369Z,21.90
2023-12-10T01:54:31.990Z,22.80
2023-12-10T01:55:34.721Z,21.70
2023-12-10T01:56:37.553Z,23.90
2023-12-10T01:57:40.265Z,21.80
2023-12-10T01:58:42.991Z,20.18
2023-12-10T01:59:45.564Z,18.70
2023-12-10T02:00:48.377Z,20.30
2023-12-10T02:01:51.022Z,20.91
2023-12-10T02:02:53.598Z,22.50
2023-12-10T02:03:56.980Z,22.45
2023-12-10T02:05:08.434Z,18.91
2023-12-10T02:06:11.810Z,19.40
2023-12-10T02:07:14.499Z,19.20
2023-12-10T02:08:17.072Z,19.80
2023-12-10T02:09:19.832Z,19.10
2023-12-10T02:10:22.713Z,18.70
2023-12-10T02:11:25.532Z,18.70
2023-12-10T02:12:28.862Z,21.08
2023-12-10T02:13:31.773Z,20.00
2023-12-10T02:14:34.330Z,17.40
2023-12-10T02:15:36.867Z,18.50
2023-12-10T02:16:39.757Z,18.55
2023-12-10T02:17:42.334Z,18.60
2023-12-10T02:18:45.405Z,19.00
2023-12-10T02:19:48.163Z,15.73
2023-12-10T02:20:50.900Z,14.82
2023-12-10T02:21:53.377Z,16.40
2023-12-10T02:23:14.691Z,15.60
2023-12-10T02:25:36.279Z,19.10
2023-12-10T02:26:39.349Z,19.10
2023-12-10T02:27:42.330Z,18.30
2023-12-10T02:28:44.898Z,10.45
2023-12-10T02:29:49.461Z,17.80
2023-12-10T02:30:52.281Z,17.10
2023-12-10T02:31:55.014Z,16.64
2023-12-10T02:32:58.194Z,16.20
2023-12-10T02:34:01.249Z,17.10
2023-12-10T02:35:04.971Z,16.75
2023-12-10T02:36:08.976Z,17.10
2023-12-10T02:37:11.581Z,18.50
2023-12-10T02:38:14.304Z,19.10
2023-12-10T02:39:16.886Z,16.40
2023-12-10T02:40:19.664Z,18.10
2023-12-10T02:41:22.220Z,19.90
2023-12-10T02:42:24.818Z,18.20
2023-12-10T02:43:27.487Z,18.10
2023-12-10T02:44:30.014Z,19.20
2023-12-10T02:45:32.596Z,15.60
2023-12-10T02:46:35.148Z,17.40
2023-12-10T02:47:38.043Z,16.60
2023-12-10T02:48:40.995Z,17.90
2023-12-10T02:49:43.963Z,16.00
2023-12-10T02:50:46.763Z,14.91
2023-12-10T02:51:49.375Z,18.70
2023-12-10T02:52:51.985Z,15.80
2023-12-10T02:53:54.473Z,12.70
2023-12-10T02:54:57.125Z,16.50
2023-12-10T02:55:59.689Z,18.00
2023-12-10T02:57:02.262Z,16.80
2023-12-10T02:58:05.783Z,11.10
2023-12-10T02:59:09.026Z,18.70
2023-12-10T03:00:12.722Z,19.36
2023-12-10T03:01:15.376Z,17.30
2023-12-10T03:02:19.903Z,18.40
2023-12-10T03:03:22.706Z,19.20
2023-12-10T03:04:25.440Z,19.45
2023-12-10T03:05:28.332Z,18.80
2023-12-10T03:06:31.105Z,20.09
2023-12-10T03:07:33.609Z,20.40
2023-12-10T03:08:36.122Z,19.70
2023-12-10T03:09:38.747Z,16.80
2023-12-10T03:10:41.465Z,25.00
2023-12-10T03:11:43.965Z,24.60
2023-12-10T03:12:46.642Z,24.80
2023-12-10T03:13:49.222Z,22.70
2023-12-10T03:14:51.830Z,25.40
2023-12-10T03:15:54.540Z,26.10
2023-12-10T03:16:57.280Z,24.36
2023-12-10T03:17:59.975Z,22.10
2023-12-10T03:19:02.749Z,19.00
2023-12-10T03:20:06.431Z,17.60
2023-12-10T03:21:09.083Z,21.70
2023-12-10T03:22:11.743Z,25.50
2023-12-10T03:23:14.211Z,24.00
2023-12-10T03:24:16.906Z,25.80
2023-12-10T03:25:20.147Z,26.10
2023-12-10T03:26:23.860Z,24.20
2023-12-10T03:27:26.582Z,25.00
2023-12-10T03:28:29.222Z,26.10
2023-12-10T03:29:31.745Z,26.20
2023-12-10T03:30:34.449Z,24.70
2023-12-10T03:31:37.432Z,22.50
2023-12-10T03:32:40.147Z,23.55
2023-12-10T03:33:43.067Z,20.91
2023-12-10T03:34:45.774Z,20.91
2023-12-10T03:35:49.481Z,20.50
2023-12-10T03:36:52.369Z,12.30
2023-12-10T03:37:55.069Z,18.40
2023-12-10T03:38:57.640Z,17.70
2023-12-10T03:40:00.146Z,14.20
2023-12-10T03:41:02.692Z,22.90
2023-12-10T03:42:05.237Z,26.10
2023-12-10T03:43:07.798Z,23.00
2023-12-10T03:44:10.329Z,22.50
2023-12-10T03:45:12.854Z,14.50
2023-12-10T03:46:17.130Z,21.90
2023-12-10T03:47:19.569Z,22.10
2023-12-10T03:48:22.202Z,21.30
2023-12-10T03:49:25.024Z,21.30
2023-12-10T03:50:27.709Z,20.50
2023-12-10T03:51:32.497Z,21.60
2023-12-10T03:52:34.651Z,20.60
2023-12-10T03:53:37.253Z,20.20
2023-12-10T03:54:39.874Z,18.00
2023-12-10T03:55:42.456Z,18.60
2023-12-10T03:56:45.179Z,10.60
2023-12-10T03:57:47.762Z,19.20
2023-12-10T03:58:50.407Z,17.50
2023-12-10T03:59:52.933Z,17.90
2023-12-10T04:00:55.618Z,18.50
2023-12-10T04:01:58.310Z,17.70
2023-12-10T04:03:00.915Z,19.90
2023-12-10T04:04:04.049Z,18.60
2023-12-10T04:05:07.354Z,18.40
2023-12-10T04:06:10.313Z,19.90
2023-12-10T04:07:12.994Z,16.00
2023-12-10T04:08:15.763Z,19.73
2023-12-10T04:09:18.226Z,22.60
2023-12-10T04:10:20.824Z,22.60
2023-12-10T04:11:26.484Z,21.10
2023-12-10T04:12:31.513Z,21.20
2023-12-10T04:13:34.425Z,19.40
2023-12-10T04:14:36.997Z,20.00
2023-12-10T04:15:39.674Z,24.00
2023-12-10T04:16:42.440Z,24.50
2023-12-10T04:17:45.011Z,24.90
2023-12-10T04:18:47.650Z,23.60
2023-12-10T04:19:50.424Z,22.90
2023-12-10T04:20:53.221Z,20.64
2023-12-10T04:21:55.845Z,19.00
2023-12-10T04:22:59.686Z,19.20
2023-12-10T04:24:02.770Z,16.20
2023-12-10T04:25:06.085Z,18.80
2023-12-10T04:26:09.397Z,19.30
2023-12-10T04:27:12.012Z,20.10
2023-12-10T04:28:14.665Z,17.70
2023-12-10T04:29:17.228Z,19.20
2023-12-10T04:30:20.011Z,19.40
2023-12-10T04:31:22.635Z,21.20
2023-12-10T04:32:25.093Z,21.00
2023-12-10T04:33:27.788Z,21.60
2023-12-10T04:34:30.641Z,20.45
2023-12-10T04:35:33.246Z,19.80
2023-12-10T04:36:35.930Z,21.30
2023-12-10T04:37:38.605Z,20.10
2023-12-10T04:38:41.255Z,18.70
2023-12-10T04:39:44.017Z,19.82
2023-12-10T04:40:46.906Z,9.91
2023-12-10T04:41:49.470Z,18.70
2023-12-10T04:42:52.061Z,21.00
2023-12-10T04:43:54.573Z,18.70
2023-12-10T04:44:57.069Z,20.10
2023-12-10T04:45:59.634Z,19.20
2023-12-10T04:47:02.216Z,19.80
2023-12-10T04:48:05.683Z,21.70
2023-12-10T04:49:08.541Z,24.20
2023-12-10T04:50:11.305Z,18.82
2023-12-10T04:51:13.910Z,18.20
2023-12-10T04:52:16.493Z,17.70
2023-12-10T04:53:19.756Z,17.40
2023-12-10T04:54:22.451Z,17.73
2023-12-10T04:55:25.223Z,18.55
2023-12-10T04:56:28.271Z,21.30
2023-12-10T04:57:30.926Z,18.80
2023-12-10T04:58:33.514Z,18.40
2023-12-10T04:59:36.046Z,20.40
2023-12-10T05:00:38.932Z,19.50
2023-12-10T05:01:41.750Z,10.55
2023-12-10T05:02:44.416Z,21.90
2023-12-10T05:03:47.057Z,19.10
2023-12-10T05:04:49.589Z,18.90
2023-12-10T05:05:52.111Z,19.50
2023-12-10T05:06:54.952Z,18.70
2023-12-10T05:07:57.537Z,20.20
2023-12-10T05:09:00.118Z,20.20
2023-12-10T05:10:02.854Z,19.50
2023-12-10T05:11:06.225Z,14.30
2023-12-10T05:12:09.139Z,19.00
2023-12-10T05:13:11.705Z,20.00
2023-12-10T05:14:14.277Z,21.30
2023-12-10T05:15:16.898Z,20.80
2023-12-10T05:16:19.617Z,21.40
2023-12-10T05:17:22.319Z,20.60
2023-12-10T05:18:24.931Z,20.60
2023-12-10T05:19:27.663Z,17.60
2023-12-10T05:20:30.906Z,19.10
2023-12-10T05:21:33.649Z,20.00
2023-12-10T05:22:36.311Z,18.70
2023-12-10T05:23:38.921Z,21.20
2023-12-10T05:24:41.529Z,20.50
2023-12-10T05:25:44.154Z,15.80
2023-12-10T05:26:47.027Z,20.36
2023-12-10T05:27:49.812Z,18.10
2023-12-10T05:28:52.565Z,22.27
2023-12-10T05:29:55.139Z,26.60
2023-12-10T05:30:57.855Z,26.30
2023-12-10T05:32:00.475Z,25.00
2023-12-10T05:33:03.159Z,22.90
2023-12-10T05:34:06.035Z,12.50
2023-12-10T05:35:09.297Z,25.36
2023-12-10T05:36:12.597Z,23.60
2023-12-10T05:37:15.120Z,21.70
2023-12-10T05:38:17.611Z,27.30
2023-12-10T05:39:20.194Z,25.90
2023-12-10T05:40:23.055Z,26.70
2023-12-10T05:41:25.633Z,23.00
2023-12-10T05:42:28.766Z,23.80
2023-12-10T05:43:31.639Z,22.10
2023-12-10T05:44:34.242Z,20.90
2023-12-10T05:45:36.877Z,19.20
2023-12-10T05:46:39.617Z,19.40
2023-12-10T05:47:42.283Z,22.30
2023-12-10T05:48:45.064Z,20.70
2023-12-10T05:49:47.740Z,18.60
2023-12-10T05:50:50.585Z,17.30
2023-12-10T05:51:53.218Z,16.90
2023-12-10T05:52:55.907Z,19.20
2023-12-10T05:53:58.435Z,19.50
2023-12-10T05:55:00.846Z,19.40
2023-12-10T05:56:04.286Z,18.40
2023-12-10T05:57:06.907Z,19.60
2023-12-10T05:58:09.706Z,14.60
2023-12-10T05:59:12.535Z,20.45
2023-12-10T06:00:16.014Z,17.64
2023-12-10T06:01:18.703Z,18.40
2023-12-10T06:02:22.552Z,17.60
2023-12-10T06:03:25.625Z,19.20
2023-12-10T06:04:28.335Z,20.82
2023-12-10T06:05:31.041Z,19.10
2023-12-10T06:06:33.712Z,19.20
2023-12-10T06:07:36.455Z,17.70
2023-12-10T06:08:39.858Z,15.70
2023-12-10T06:09:42.464Z,19.90
2023-12-10T06:10:45.231Z,18.00
2023-12-10T06:11:47.714Z,18.50
2023-12-10T06:12:50.329Z,19.90
2023-12-10T06:13:53.090Z,18.70
2023-12-10T06:14:56.692Z,17.60
2023-12-10T06:16:00.610Z,19.40
2023-12-10T06:17:03.660Z,20.00
2023-12-10T06:18:06.389Z,19.91
2023-12-10T06:19:09.116Z,19.80
2023-12-10T06:20:12.367Z,18.50
2023-12-10T06:21:15.053Z,18.10
2023-12-10T06:22:17.777Z,20.91
2023-12-10T06:23:20.217Z,18.40
2023-12-10T06:24:22.780Z,14.80
2023-12-10T06:25:25.319Z,18.90
2023-12-10T06:26:27.963Z,17.50
2023-12-10T06:27:30.568Z,19.40
2023-12-10T06:28:33.016Z,17.60
2023-12-10T06:29:35.845Z,20.20
2023-12-10T06:30:38.479Z,17.70
2023-12-10T06:31:41.024Z,20.50
2023-12-10T06:32:43.635Z,19.80
2023-12-10T06:33:46.434Z,21.10
2023-12-10T06:34:49.275Z,21.36
2023-12-10T06:35:51.762Z,18.30
2023-12-10T06:36:54.529Z,17.70
2023-12-10T06:37:57.145Z,19.90
2023-12-10T06:38:59.716Z,20.30
2023-12-10T06:40:02.423Z,21.00
2023-12-10T06:41:05.663Z,22.91
2023-12-10T06:42:08.334Z,20.82
2023-12-10T06:43:11.107Z,22.30
2023-12-10T06:44:13.835Z,22.20
2023-12-10T06:45:16.419Z,18.80
2023-12-10T06:46:19.210Z,19.30
2023-12-10T06:47:21.682Z,21.70
2023-12-10T06:48:24.433Z,21.10
2023-12-10T06:49:27.311Z,17.18
2023-12-10T06:50:30.435Z,20.27
2023-12-10T06:51:32.889Z,17.50
2023-12-10T06:52:35.472Z,21.60
2023-12-10T06:53:38.210Z,18.80
2023-12-10T06:54:40.822Z,19.90
2023-12-10T06:55:43.410Z,19.50
2023-12-10T06:56:45.973Z,18.80
2023-12-10T06:57:48.472Z,21.30
2023-12-10T06:58:50.912Z,22.10
2023-12-10T06:59:53.698Z,23.30
2023-12-10T07:00:56.411Z,22.00
2023-12-10T07:01:59.054Z,21.40
2023-12-10T07:03:01.653Z,19.70
2023-12-10T07:04:06.108Z,21.10
2023-12-10T07:05:09.042Z,21.50
2023-12-10T07:06:11.882Z,20.09
2023-12-10T07:07:14.438Z,21.00
2023-12-10T07:08:17.014Z,18.40
2023-12-10T07:09:19.836Z,23.70
2023-12-10T07:10:22.669Z,21.36
2023-12-10T07:11:25.189Z,26.50
2023-12-10T07:12:27.993Z,27.90
2023-12-10T07:13:30.730Z,28.40
2023-12-10T07:14:33.241Z,27.90
2023-12-10T07:15:35.787Z,27.40
2023-12-10T07:16:38.597Z,29.70
2023-12-10T07:17:41.357Z,30.50
2023-12-10T07:18:44.094Z,27.55
2023-12-10T07:19:46.891Z,29.00
2023-12-10T07:20:49.588Z,26.70
2023-12-10T07:21:52.148Z,24.60
2023-12-10T07:22:54.663Z,23.90
2023-12-10T07:23:57.275Z,21.10
2023-12-10T07:24:59.935Z,24.80
2023-12-10T07:26:02.715Z,22.60
2023-12-10T07:27:05.482Z,22.60
2023-12-10T07:28:08.048Z,21.80
2023-12-10T07:29:10.569Z,23.00
2023-12-10T07:30:14.715Z,21.50
2023-12-10T07:31:18.161Z,20.90
2023-12-10T07:32:20.781Z,19.40
2023-12-10T07:33:23.658Z,23.10
2023-12-10T07:34:26.357Z,21.73
2023-12-10T07:35:28.995Z,21.10
2023-12-10T07:36:32.668Z,20.40
2023-12-10T07:37:35.755Z,22.80
2023-12-10T07:38:38.931Z,23.70
2023-12-10T07:39:41.530Z,22.30
2023-12-10T07:40:44.272Z,23.60
2023-12-10T07:41:46.802Z,20.90
2023-12-10T07:42:49.442Z,21.30
2023-12-10T07:43:51.981Z,22.20
2023-12-10T07:44:54.504Z,21.80
2023-12-10T07:45:57.073Z,21.70
2023-12-10T07:47:00.087Z,23.90
2023-12-10T07:48:03.623Z,24.70
2023-12-10T07:49:06.456Z,24.00
2023-12-10T07:50:09.883Z,22.90
2023-12-10T07:51:12.609Z,24.73
2023-12-10T07:52:15.560Z,22.64
2023-12-10T07:53:18.053Z,20.80
2023-12-10T07:54:20.597Z,21.00
2023-12-10T07:55:23.186Z,24.10
2023-12-10T07:56:25.853Z,29.40
2023-12-10T07:57:28.366Z,27.40
2023-12-10T07:58:30.826Z,26.70
2023-12-10T07:59:33.463Z,23.20
2023-12-10T08:00:36.379Z,21.00
2023-12-10T08:01:39.274Z,25.00
2023-12-10T08:02:41.866Z,23.00
2023-12-10T08:03:44.624Z,24.30
2023-12-10T08:04:47.308Z,23.70
2023-12-10T08:05:49.732Z,25.30
2023-12-10T08:06:52.484Z,25.60
2023-12-10T08:07:55.020Z,24.80
2023-12-10T08:08:57.679Z,24.20
2023-12-10T08:10:00.402Z,28.80
2023-12-10T08:11:02.951Z,29.00
2023-12-10T08:12:06.133Z,26.70
2023-12-10T08:13:08.738Z,27.20
2023-12-10T08:14:11.270Z,26.80
2023-12-10T08:15:13.921Z,25.90
2023-12-10T08:16:16.632Z,24.45
2023-12-10T08:17:19.123Z,26.00
2023-12-10T08:18:21.836Z,25.80
2023-12-10T08:19:24.771Z,22.18
2023-12-10T08:20:27.758Z,24.64
2023-12-10T08:21:30.547Z,26.27
2023-12-10T08:22:33.160Z,25.90
2023-12-10T08:23:35.667Z,23.80
2023-12-10T08:24:38.219Z,23.40
2023-12-10T08:25:40.761Z,20.30
2023-12-10T08:26:43.364Z,25.80
2023-12-10T08:27:45.952Z,27.90
2023-12-10T08:28:48.969Z,26.90
2023-12-10T08:29:51.486Z,26.00
2023-12-10T08:30:54.408Z,25.82
2023-12-10T08:31:57.238Z,25.40
2023-12-10T08:32:59.789Z,24.30
2023-12-10T08:34:02.400Z,21.10
2023-12-10T08:35:05.848Z,22.60
2023-12-10T08:36:09.742Z,20.70
2023-12-10T08:37:12.414Z,21.70
2023-12-10T08:38:14.990Z,22.10
2023-12-10T08:39:17.577Z,24.30
2023-12-10T08:40:20.374Z,28.10
2023-12-10T08:41:23.060Z,26.20
2023-12-10T08:42:25.564Z,22.80
2023-12-10T08:43:28.137Z,20.70
2023-12-10T08:44:31.021Z,20.70
2023-12-10T08:45:35.040Z,21.73
2023-12-10T08:46:38.081Z,26.40
2023-12-10T08:47:40.823Z,28.50
2023-12-10T08:48:43.736Z,29.20
2023-12-10T08:49:46.546Z,27.36
2023-12-10T08:50:51.015Z,32.10
2023-12-10T08:51:53.651Z,33.90
2023-12-10T08:52:56.248Z,32.30
2023-12-10T08:53:58.734Z,7.40
2023-12-10T08:55:01.646Z,26.90
2023-12-10T08:56:05.258Z,32.36
2023-12-10T08:57:07.857Z,33.10
2023-12-10T08:58:10.417Z,45.50
2023-12-10T08:59:12.911Z,42.30
2023-12-10T09:00:17.697Z,41.50
2023-12-10T09:01:20.456Z,41.00
2023-12-10T09:02:23.099Z,33.70
2023-12-10T09:03:25.656Z,37.60
2023-12-10T09:04:28.280Z,44.50
2023-12-10T09:05:30.887Z,36.20
2023-12-10T09:06:34.633Z,29.20
2023-12-10T09:07:37.306Z,24.80
2023-12-10T09:08:39.942Z,23.10
2023-12-10T09:09:42.986Z,26.10
2023-12-10T09:10:45.682Z,31.40
2023-12-10T09:11:48.116Z,25.30
2023-12-10T09:12:50.713Z,24.20
2023-12-10T09:13:53.527Z,24.10
2023-12-10T09:14:56.620Z,26.40
2023-12-10T09:15:59.671Z,28.90
2023-12-10T09:17:02.469Z,26.27
2023-12-10T09:18:05.171Z,24.20
2023-12-10T09:19:07.985Z,26.00
2023-12-10T09:20:12.831Z,23.30
2023-12-10T09:21:15.490Z,25.40
2023-12-10T09:22:18.049Z,24.30
2023-12-10T09:23:20.931Z,24.90
2023-12-10T09:24:23.719Z,26.00
2023-12-10T09:25:26.388Z,26.40
2023-12-10T09:26:29.041Z,25.10
2023-12-10T09:27:31.636Z,24.50
2023-12-10T09:28:34.174Z,21.20
2023-12-10T09:29:36.743Z,16.80
2023-12-10T09:30:39.919Z,21.80
2023-12-10T09:31:42.623Z,23.40
2023-12-10T09:32:45.198Z,26.50
2023-12-10T09:33:49.131Z,27.40
2023-12-10T09:34:52.015Z,26.00
2023-12-10T09:35:55.014Z,26.10
2023-12-10T09:36:58.179Z,25.55
2023-12-10T09:38:01.578Z,25.40
2023-12-10T09:39:04.140Z,27.30
2023-12-10T09:40:07.799Z,26.30
2023-12-10T09:41:10.508Z,26.20
2023-12-10T09:42:13.010Z,23.40
2023-12-10T09:43:15.571Z,22.40
2023-12-10T09:44:18.115Z,24.20
2023-12-10T09:45:20.669Z,26.80
2023-12-10T09:46:24.840Z,29.60
2023-12-10T09:47:29.228Z,26.27
2023-12-10T09:48:32.978Z,24.60
2023-12-10T09:49:37.700Z,30.20
2023-12-10T09:50:40.776Z,30.30
2023-12-10T09:51:43.395Z,27.50
2023-12-10T09:52:46.021Z,26.50
2023-12-10T09:53:50.529Z,27.90
2023-12-10T09:54:53.237Z,24.30
2023-12-10T09:55:55.823Z,23.90
2023-12-10T09:56:58.751Z,24.80
2023-12-10T09:58:01.355Z,25.90
2023-12-10T09:59:03.985Z,29.20
2023-12-10T10:00:07.980Z,30.00
2023-12-10T10:01:10.903Z,27.00
2023-12-10T10:02:13.625Z,26.45
2023-12-10T10:03:16.219Z,27.20
2023-12-10T10:04:18.823Z,33.60
2023-12-10T10:05:22.147Z,28.90
2023-12-10T10:06:27.162Z,24.40
2023-12-10T10:07:30.508Z,24.80
2023-12-10T10:08:33.141Z,21.40
2023-12-10T10:09:38.221Z,25.10
2023-12-10T10:10:42.079Z,24.20
2023-12-10T10:11:49.098Z,24.10
2023-12-10T10:12:56.373Z,26.80
2023-12-10T10:13:59.085Z,26.30
2023-12-10T10:15:01.821Z,24.00
2023-12-10T10:16:11.476Z,24.18
2023-12-10T10:17:14.104Z,23.80
2023-12-10T10:18:16.741Z,24.40
2023-12-10T10:19:19.631Z,24.73
2023-12-10T10:21:33.322Z,25.10
2023-12-10T10:22:36.395Z,28.55
2023-12-10T10:23:39.071Z,26.70
2023-12-10T10:24:41.856Z,27.55
2023-12-10T10:25:44.315Z,26.80
2023-12-10T10:26:47.344Z,23.20
2023-12-10T10:27:50.033Z,23.00
2023-12-10T10:28:53.151Z,25.40
2023-12-10T10:29:55.834Z,25.30
2023-12-10T10:30:59.021Z,22.20
2023-12-10T10:32:01.766Z,22.09
2023-12-10T10:33:04.339Z,3.80
2023-12-10T10:34:07.267Z,19.20
2023-12-10T10:35:09.964Z,22.55
2023-12-10T10:36:16.018Z,27.10
2023-12-10T10:37:19.024Z,28.50
2023-12-10T10:38:21.664Z,27.80
2023-12-10T10:39:24.618Z,27.70
2023-12-10T10:40:27.518Z,26.10
2023-12-10T10:41:30.958Z,23.90
2023-12-10T10:42:35.542Z,23.90
2023-12-10T10:43:37.801Z,25.90
2023-12-10T10:44:40.867Z,24.10
2023-12-10T10:45:43.499Z,22.40
2023-12-10T10:46:46.695Z,21.60
2023-12-10T10:47:49.528Z,20.30
2023-12-10T10:48:52.382Z,20.60
2023-12-10T10:50:20.017Z,15.36
2023-12-10T10:51:02.880Z,20.20
2023-12-10T10:52:09.176Z,19.20
2023-12-10T10:53:13.058Z,20.10
2023-12-10T10:54:16.080Z,23.00
2023-12-10T10:55:18.817Z,20.50
2023-12-10T10:56:22.611Z,22.00
2023-12-10T10:58:40.144Z,21.60
2023-12-10T10:59:42.703Z,19.40
2023-12-10T11:00:45.801Z,20.36
2023-12-10T11:01:48.541Z,21.64
2023-12-10T11:02:54.924Z,20.50
2023-12-10T11:03:58.244Z,15.90
2023-12-10T11:05:00.861Z,21.10
2023-12-10T11:06:06.706Z,18.90
2023-12-10T11:07:09.492Z,18.70
2023-12-10T11:08:12.363Z,20.50
2023-12-10T11:09:17.177Z,20.91
2023-12-10T11:10:21.173Z,20.00
2023-12-10T11:11:25.939Z,20.20
2023-12-10T11:12:44.392Z,22.40
2023-12-10T11:13:48.030Z,21.80
2023-12-10T11:14:52.949Z,21.10
2023-12-10T11:15:58.484Z,23.50
2023-12-10T11:17:05.065Z,31.30
2023-12-10T11:18:10.860Z,23.60
2023-12-10T11:19:13.964Z,26.60
2023-12-10T11:20:35.069Z,29.00
2023-12-10T11:21:37.756Z,27.70
2023-12-10T11:22:40.472Z,23.70
2023-12-10T11:23:43.078Z,22.40
2023-12-10T11:24:45.680Z,21.10
2023-12-10T11:25:48.252Z,21.30
2023-12-10T11:26:51.202Z,20.40
2023-12-10T11:27:53.781Z,20.50
2023-12-10T11:28:56.299Z,19.90
2023-12-10T11:29:58.886Z,21.60
2023-12-10T11:31:01.797Z,19.64
2023-12-10T11:32:05.038Z,20.50
2023-12-10T11:33:08.946Z,21.82
2023-12-10T11:34:12.039Z,19.30
2023-12-10T11:35:15.397Z,23.50
2023-12-10T11:36:35.705Z,24.00
2023-12-10T11:37:23.466Z,22.80
2023-12-10T11:38:26.075Z,23.10
2023-12-10T11:39:28.654Z,23.20
2023-12-10T11:40:32.243Z,26.70
2023-12-10T11:41:34.761Z,22.30
2023-12-10T11:42:37.736Z,23.70
2023-12-10T11:43:40.339Z,24.60
2023-12-10T11:44:44.345Z,25.40
2023-12-10T11:45:47.643Z,23.60
2023-12-10T11:46:52.741Z,20.90
2023-12-10T11:47:55.987Z,16.80
2023-12-10T11:48:58.678Z,20.00
2023-12-10T11:50:03.644Z,14.60
2023-12-10T11:51:06.319Z,21.30
2023-12-10T11:52:09.484Z,27.10
2023-12-10T11:53:12.180Z,24.10
2023-12-10T11:54:16.555Z,20.20
2023-12-10T11:55:19.551Z,18.50
2023-12-10T11:56:24.983Z,21.20
2023-12-10T11:57:27.699Z,20.60
2023-12-10T11:58:32.607Z,21.00
2023-12-10T11:59:35.160Z,24.60
2023-12-10T12:00:38.885Z,28.00
2023-12-10T12:01:45.870Z,24.70
2023-12-10T12:02:48.580Z,20.90
2023-12-10T12:03:51.231Z,19.50
2023-12-10T12:04:53.976Z,19.80
2023-12-10T12:05:56.885Z,18.60
2023-12-10T12:06:59.959Z,20.30
2023-12-10T12:08:02.747Z,16.91
2023-12-10T12:09:05.259Z,18.20
2023-12-10T12:10:10.253Z,10.70
2023-12-10T12:11:15.268Z,20.80
2023-12-10T12:12:19.745Z,19.50
2023-12-10T12:13:22.484Z,21.20
2023-12-10T12:14:26.326Z,22.18
2023-12-10T12:15:28.929Z,23.00
2023-12-10T12:16:31.787Z,21.50
2023-12-10T12:17:36.058Z,22.40
2023-12-10T12:18:40.517Z,24.80
2023-12-10T12:19:43.449Z,27.20
2023-12-10T12:20:46.242Z,28.90
2023-12-10T12:21:48.876Z,23.70
2023-12-10T12:22:51.382Z,23.50
2023-12-10T12:23:53.833Z,27.90
2023-12-10T12:24:56.450Z,28.00
2023-12-10T12:25:59.276Z,28.09
2023-12-10T12:27:02.111Z,33.90
2023-12-10T12:28:07.932Z,55.20
2023-12-10T12:29:10.665Z,60.60
2023-12-10T12:30:15.898Z,42.90
2023-12-10T12:31:18.566Z,39.60
2023-12-10T12:33:25.722Z,49.50
2023-12-10T12:34:28.409Z,45.40
2023-12-10T12:35:31.252Z,41.10
2023-12-10T12:36:33.994Z,52.60
2023-12-10T12:37:37.044Z,40.10
2023-12-10T12:38:39.976Z,44.10
2023-12-10T12:39:42.615Z,54.10
2023-12-10T12:40:45.463Z,45.90
2023-12-10T12:41:48.022Z,33.60
2023-12-10T12:42:50.863Z,54.20
2023-12-10T12:43:53.369Z,62.00
2023-12-10T12:44:55.932Z,44.80
2023-12-10T12:45:58.554Z,37.40
2023-12-10T12:47:03.406Z,37.90
2023-12-10T12:48:06.235Z,45.45
2023-12-10T12:49:09.689Z,44.50
2023-12-10T12:50:12.820Z,37.50
2023-12-10T12:51:15.282Z,35.50
2023-12-10T12:52:18.101Z,35.60
2023-12-10T12:53:20.740Z,34.82
2023-12-10T12:54:23.316Z,34.80
2023-12-10T12:55:26.484Z,37.20
2023-12-10T12:56:29.753Z,32.60
2023-12-10T12:57:32.602Z,29.50
2023-12-10T12:58:35.437Z,24.55
2023-12-10T12:59:38.321Z,24.10
2023-12-10T13:00:42.713Z,23.00
2023-12-10T13:01:45.495Z,23.27
2023-12-10T13:02:48.483Z,23.70
2023-12-10T13:03:51.318Z,26.20
2023-12-10T13:04:54.382Z,25.00
2023-12-10T13:05:57.619Z,25.00
2023-12-10T13:07:00.989Z,19.50
2023-12-10T13:08:03.724Z,26.40
2023-12-10T13:09:06.251Z,29.20
2023-12-10T13:10:10.178Z,28.10
2023-12-10T13:11:13.514Z,28.00
2023-12-10T13:12:16.395Z,32.00
2023-12-10T13:13:19.167Z,26.30
2023-12-10T13:14:21.736Z,25.20
2023-12-10T13:15:24.321Z,25.00
2023-12-10T13:16:29.730Z,25.00
2023-12-10T13:17:32.834Z,22.90
2023-12-10T13:18:35.783Z,21.60
2023-12-10T13:19:38.571Z,25.20
2023-12-10T13:20:41.756Z,22.60
2023-12-10T13:21:44.345Z,19.30
2023-12-10T13:22:46.976Z,18.60
2023-12-10T13:23:49.466Z,18.30
2023-12-10T13:24:52.158Z,20.70
2023-12-10T13:25:54.740Z,22.60
2023-12-10T13:26:59.100Z,28.90
2023-12-10T13:28:01.688Z,28.70
2023-12-10T13:29:04.462Z,23.90
2023-12-10T13:30:09.105Z,22.60
2023-12-10T13:31:12.933Z,19.30
2023-12-10T13:32:15.364Z,19.50
2023-12-10T13:33:18.658Z,16.20
2023-12-10T13:34:22.073Z,19.80
2023-12-10T13:35:24.738Z,18.90
2023-12-10T13:36:27.550Z,19.30